createdAt,value
2023-01-20T00:01:26.528Z,5.10
2023-01-20T00:03:55.321Z,5.13
2023-01-20T00:06:23.660Z,4.07
2023-01-20T00:08:51.794Z,7.50
2023-01-20T00:11:19.340Z,4.13
2023-01-20T00:13:46.161Z,3.30
2023-01-20T00:16:13.302Z,4.65
2023-01-20T00:18:40.695Z,11.50
2023-01-20T00:21:17.026Z,15.13
2023-01-20T00:23:44.270Z,11.38
2023-01-20T00:26:14.814Z,12.90
2023-01-20T00:28:41.707Z,12.98
2023-01-20T00:31:15.614Z,10.32
2023-01-20T00:33:43.207Z,10.82
2023-01-20T00:36:11.024Z,9.38
2023-01-20T00:38:38.178Z,13.98
2023-01-20T00:41:05.486Z,11.35
2023-01-20T00:43:32.484Z,9.07
2023-01-20T00:45:59.169Z,9.68
2023-01-20T00:48:26.136Z,9.13
2023-01-20T00:50:52.799Z,9.07
2023-01-20T00:53:19.456Z,9.18
2023-01-20T00:55:46.205Z,7.85
2023-01-20T00:58:12.845Z,8.57
2023-01-20T01:00:39.744Z,9.95
2023-01-20T01:03:06.435Z,8.25
2023-01-20T01:05:33.589Z,6.75
2023-01-20T01:08:00.409Z,6.43
2023-01-20T01:10:28.140Z,6.50
2023-01-20T01:12:54.729Z,7.45
2023-01-20T01:15:21.475Z,6.88
2023-01-20T01:17:48.243Z,6.18
2023-01-20T01:20:15.166Z,6.18
2023-01-20T01:22:41.876Z,4.85
2023-01-20T01:25:08.923Z,5.68
2023-01-20T01:27:35.865Z,3.63
2023-01-20T01:30:02.683Z,4.00
2023-01-20T01:32:29.511Z,9.07
2023-01-20T01:34:56.228Z,8.07
2023-01-20T01:37:22.984Z,6.65
2023-01-20T01:39:49.929Z,6.97
2023-01-20T01:42:19.845Z,12.32
2023-01-20T01:45:08.619Z,9.35
2023-01-20T01:47:35.559Z,6.97
2023-01-20T01:50:03.052Z,6.60
2023-01-20T01:52:29.891Z,5.97
2023-01-20T01:54:58.603Z,9.85
2023-01-20T01:57:25.415Z,8.30
2023-01-20T01:59:52.335Z,8.32
2023-01-20T02:02:21.941Z,7.07
2023-01-20T02:04:50.826Z,5.82
2023-01-20T02:07:20.865Z,6.22
2023-01-20T02:09:47.569Z,6.90
2023-01-20T02:12:18.726Z,6.53
2023-01-20T02:14:53.075Z,4.28
2023-01-20T02:17:33.960Z,4.55
2023-01-20T02:20:45.792Z,6.90
2023-01-20T02:23:24.800Z,5.47
2023-01-20T02:26:20.434Z,5.05
2023-01-20T02:29:10.357Z,5.13
2023-01-20T02:31:49.287Z,5.57
2023-01-20T02:34:24.001Z,8.07
2023-01-20T02:37:05.777Z,3.25
2023-01-20T02:39:40.659Z,7.72
2023-01-20T02:42:22.543Z,4.20
2023-01-20T02:44:57.686Z,5.38
2023-01-20T02:47:35.717Z,4.18
2023-01-20T02:50:12.776Z,3.28
2023-01-20T02:52:46.873Z,3.53
2023-01-20T02:55:20.017Z,3.05
2023-01-20T02:57:56.091Z,4.07
2023-01-20T03:00:30.255Z,3.53
2023-01-20T03:05:33.348Z,3.10
2023-01-20T03:08:05.805Z,3.47
2023-01-20T03:10:35.178Z,5.30
2023-01-20T03:13:20.617Z,4.45
2023-01-20T03:16:01.164Z,4.32
2023-01-20T03:18:32.979Z,10.27
2023-01-20T03:21:01.327Z,9.57
2023-01-20T03:23:32.238Z,10.27
2023-01-20T03:25:59.487Z,8.15
2023-01-20T03:28:26.481Z,4.30
2023-01-20T03:30:57.272Z,6.32
2023-01-20T03:33:25.113Z,5.22
2023-01-20T03:35:52.930Z,4.82
2023-01-20T03:38:19.619Z,4.75
2023-01-20T03:40:55.541Z,4.05
2023-01-20T03:43:55.898Z,5.63
2023-01-20T03:46:51.032Z,3.42
2023-01-20T03:49:34.025Z,3.17
2023-01-20T03:52:03.585Z,3.20
2023-01-20T03:54:48.871Z,2.30
2023-01-20T03:57:20.324Z,8.43
2023-01-20T03:59:50.208Z,9.77
2023-01-20T04:02:17.099Z,11.70
2023-01-20T04:04:45.696Z,9.13
2023-01-20T04:07:18.312Z,8.85
2023-01-20T04:09:51.381Z,13.73
2023-01-20T04:12:18.193Z,14.48
2023-01-20T04:14:44.844Z,14.77
2023-01-20T04:17:12.832Z,113.07
2023-01-20T04:19:39.569Z,7.82
2023-01-20T04:22:28.559Z,29.95
2023-01-20T04:25:03.771Z,20.00
2023-01-20T04:27:30.614Z,10.18
2023-01-20T04:29:57.231Z,9.10
2023-01-20T04:32:23.975Z,6.18
2023-01-20T04:34:56.551Z,4.38
2023-01-20T04:37:23.257Z,5.63
2023-01-20T04:39:49.923Z,5.28
2023-01-20T04:42:16.897Z,5.53
2023-01-20T04:44:43.618Z,6.28
2023-01-20T04:47:10.294Z,6.03
2023-01-20T04:49:37.312Z,5.75
2023-01-20T04:52:04.366Z,18.27
2023-01-20T04:54:31.030Z,5.15
2023-01-20T04:56:58.082Z,4.18
2023-01-20T04:59:24.694Z,6.38
2023-01-20T05:01:51.394Z,5.55
2023-01-20T05:04:18.743Z,5.38
2023-01-20T05:06:45.410Z,5.28
2023-01-20T05:09:14.230Z,4.68
2023-01-20T05:11:41.946Z,4.57
2023-01-20T05:14:09.236Z,7.22
2023-01-20T05:16:36.250Z,10.57
2023-01-20T05:19:03.303Z,9.27
2023-01-20T05:21:30.018Z,13.95
2023-01-20T05:23:57.779Z,12.70
2023-01-20T05:26:25.165Z,11.18
2023-01-20T05:28:52.107Z,8.65
2023-01-20T05:31:18.991Z,8.93
2023-01-20T05:33:45.854Z,11.52
2023-01-20T05:36:12.541Z,11.10
2023-01-20T05:38:39.193Z,8.60
2023-01-20T05:41:08.141Z,12.15
2023-01-20T05:43:35.340Z,13.52
2023-01-20T05:46:02.368Z,13.02
2023-01-20T05:48:29.244Z,9.50
2023-01-20T05:50:56.361Z,14.73
2023-01-20T05:53:23.111Z,15.75
2023-01-20T05:55:50.299Z,16.40
2023-01-20T05:58:17.050Z,22.88
2023-01-20T06:00:43.706Z,19.85
2023-01-20T06:03:10.699Z,23.05
2023-01-20T06:05:37.283Z,20.67
2023-01-20T06:08:03.957Z,17.48
2023-01-20T06:10:30.993Z,21.40
2023-01-20T06:12:57.645Z,17.88
2023-01-20T06:15:25.796Z,18.23
2023-01-20T06:17:55.460Z,14.35
2023-01-20T06:20:22.209Z,13.50
2023-01-20T06:22:48.883Z,17.38
2023-01-20T06:25:16.108Z,12.95
2023-01-20T06:27:42.925Z,12.38
2023-01-20T06:30:10.328Z,11.18
2023-01-20T06:32:37.158Z,14.60
2023-01-20T06:35:03.868Z,12.73
2023-01-20T06:37:30.536Z,8.88
2023-01-20T06:39:57.389Z,8.85
2023-01-20T06:42:24.108Z,11.10
2023-01-20T06:44:50.716Z,11.23
2023-01-20T06:47:17.775Z,12.05
2023-01-20T06:49:44.357Z,9.95
2023-01-20T06:52:10.976Z,11.43
2023-01-20T06:54:37.852Z,8.40
2023-01-20T06:57:04.464Z,10.35
2023-01-20T06:59:31.071Z,13.05
2023-01-20T07:01:57.967Z,12.32
2023-01-20T07:04:24.715Z,17.13
2023-01-20T07:06:51.406Z,20.38
2023-01-20T07:09:18.263Z,20.42
2023-01-20T07:11:44.897Z,17.65
2023-01-20T07:14:11.587Z,20.20
2023-01-20T07:16:38.775Z,22.88
2023-01-20T07:19:05.569Z,26.48
2023-01-20T07:21:32.311Z,22.40
2023-01-20T07:24:02.599Z,19.55
2023-01-20T07:26:29.379Z,23.17
2023-01-20T07:28:58.115Z,18.80
2023-01-20T07:31:28.799Z,22.40
2023-01-20T07:33:56.618Z,20.15
2023-01-20T07:36:23.712Z,18.35
2023-01-20T07:38:51.045Z,40.92
2023-01-20T07:41:19.880Z,42.10
2023-01-20T07:43:48.509Z,43.55
2023-01-20T07:46:15.515Z,33.17
2023-01-20T07:48:42.758Z,38.30
2023-01-20T07:51:11.658Z,40.50
2023-01-20T07:53:40.787Z,40.55
2023-01-20T07:56:12.743Z,40.83
2023-01-20T07:58:39.772Z,34.67
2023-01-20T08:01:14.971Z,33.58
2023-01-20T08:03:42.534Z,30.67
2023-01-20T08:06:11.504Z,24.17
2023-01-20T08:08:38.484Z,24.70
2023-01-20T08:11:06.960Z,21.95
2023-01-20T08:13:33.713Z,24.55
2023-01-20T08:16:05.129Z,25.73
2023-01-20T08:18:32.861Z,26.30
2023-01-20T08:20:59.996Z,23.73
2023-01-20T08:23:26.855Z,21.15
2023-01-20T08:26:02.099Z,18.92
2023-01-20T08:28:30.477Z,21.92
2023-01-20T08:31:13.941Z,19.35
2023-01-20T08:33:42.706Z,18.50
2023-01-20T08:36:15.315Z,17.25
2023-01-20T08:38:42.557Z,14.98
2023-01-20T08:41:12.773Z,15.57
2023-01-20T08:43:39.758Z,16.05
2023-01-20T08:46:09.430Z,13.63
2023-01-20T08:48:38.192Z,19.02
2023-01-20T08:51:14.388Z,15.52
2023-01-20T08:53:41.918Z,16.77
2023-01-20T08:56:09.285Z,17.42
2023-01-20T08:58:36.067Z,16.30
2023-01-20T09:01:11.936Z,16.48
2023-01-20T09:03:40.086Z,14.07
2023-01-20T09:06:07.955Z,20.05
2023-01-20T09:08:34.996Z,15.07
2023-01-20T09:11:22.060Z,14.40
2023-01-20T09:13:49.128Z,13.40
2023-01-20T09:16:18.315Z,15.15
2023-01-20T09:18:45.432Z,14.48
2023-01-20T09:21:12.483Z,15.48
2023-01-20T09:23:40.472Z,17.65
2023-01-20T09:26:07.940Z,14.63
2023-01-20T09:28:35.171Z,15.48
2023-01-20T09:31:04.466Z,22.40
2023-01-20T09:33:32.455Z,20.65
2023-01-20T09:36:00.092Z,24.25
2023-01-20T09:38:45.869Z,24.88
2023-01-20T09:41:55.212Z,24.50
2023-01-20T09:44:40.111Z,32.40
2023-01-20T09:47:26.226Z,32.05
2023-01-20T09:50:42.777Z,28.92
2023-01-20T09:53:18.940Z,26.63
2023-01-20T09:55:54.807Z,22.80
2023-01-20T09:58:30.621Z,26.10
2023-01-20T10:01:08.903Z,24.00
2023-01-20T10:04:05.146Z,19.95
2023-01-20T10:06:53.135Z,16.90
2023-01-20T10:09:33.553Z,15.98
2023-01-20T10:12:10.909Z,14.40
2023-01-20T10:14:45.445Z,13.82
2023-01-20T10:17:22.214Z,14.10
2023-01-20T10:20:32.206Z,17.05
2023-01-20T10:23:06.662Z,15.60
2023-01-20T10:25:48.112Z,15.90
2023-01-20T10:28:20.629Z,16.98
2023-01-20T10:30:48.406Z,16.55
2023-01-20T10:33:26.221Z,16.42
2023-01-20T10:35:57.057Z,18.27
2023-01-20T10:38:40.889Z,18.88
2023-01-20T10:41:19.377Z,19.08
2023-01-20T10:43:47.828Z,27.70
2023-01-20T10:46:35.556Z,31.77
2023-01-20T10:49:42.328Z,28.58
2023-01-20T10:52:27.174Z,30.05
2023-01-20T10:55:00.934Z,28.83
2023-01-20T10:57:28.198Z,23.15
2023-01-20T11:00:03.176Z,18.73
2023-01-20T11:02:34.825Z,20.65
2023-01-20T11:05:15.435Z,22.83
2023-01-20T11:07:44.500Z,30.85
2023-01-20T11:10:17.883Z,23.25
2023-01-20T11:12:48.469Z,21.53
2023-01-20T11:15:37.252Z,21.50
2023-01-20T11:18:16.153Z,24.65
2023-01-20T11:21:05.320Z,23.10
2023-01-20T11:23:57.811Z,27.25
2023-01-20T11:26:29.817Z,22.85
2023-01-20T11:29:00.657Z,25.13
2023-01-20T11:31:51.828Z,28.23
2023-01-20T11:34:31.624Z,29.45
2023-01-20T11:37:19.946Z,26.20
2023-01-20T11:39:49.625Z,26.92
2023-01-20T11:42:20.381Z,24.25
2023-01-20T11:44:55.462Z,27.35
2023-01-20T11:47:24.890Z,21.10
2023-01-20T11:50:09.597Z,24.25
2023-01-20T11:52:45.985Z,22.65
2023-01-20T11:55:12.898Z,22.65
2023-01-20T11:57:52.476Z,23.33
2023-01-20T12:00:19.441Z,21.88
2023-01-20T12:03:19.988Z,27.55
2023-01-20T12:06:07.758Z,26.45
2023-01-20T12:08:51.338Z,32.53
2023-01-20T12:11:30.588Z,32.53
2023-01-20T12:14:23.242Z,29.23
2023-01-20T12:16:53.402Z,24.13
2023-01-20T12:19:23.981Z,25.02
2023-01-20T12:21:53.413Z,25.83
2023-01-20T12:24:35.441Z,25.10
2023-01-20T12:27:21.186Z,21.83
2023-01-20T12:29:51.945Z,24.40
2023-01-20T12:32:18.672Z,21.60
2023-01-20T12:34:45.629Z,18.20
2023-01-20T12:37:39.616Z,18.63
2023-01-20T12:40:25.141Z,17.00
2023-01-20T12:43:00.453Z,12.57
2023-01-20T12:45:36.786Z,16.33
2023-01-20T12:48:27.466Z,16.23
2023-01-20T12:51:05.930Z,21.92
2023-01-20T12:54:03.777Z,22.35
2023-01-20T12:56:58.875Z,36.25
2023-01-20T12:59:43.747Z,59.63
2023-01-20T13:02:26.930Z,58.40
2023-01-20T13:05:05.917Z,62.08
2023-01-20T13:07:47.821Z,41.53
2023-01-20T13:10:19.271Z,50.13
2023-01-20T13:12:56.055Z,70.13
2023-01-20T13:15:31.577Z,57.90
2023-01-20T13:18:23.681Z,79.43
2023-01-20T13:20:52.607Z,65.90
2023-01-20T13:23:25.311Z,74.20
2023-01-20T13:25:52.801Z,46.05
2023-01-20T13:28:22.552Z,37.45
2023-01-20T13:30:57.852Z,39.67
2023-01-20T13:33:34.088Z,42.38
2023-01-20T13:36:14.339Z,46.92
2023-01-20T13:38:41.126Z,42.10
2023-01-20T13:41:09.693Z,44.03
2023-01-20T13:43:37.768Z,45.47
2023-01-20T13:46:07.500Z,41.35
2023-01-20T13:48:43.671Z,42.80
2023-01-20T13:51:16.129Z,38.95
2023-01-20T13:53:43.625Z,40.58
2023-01-20T13:56:35.499Z,45.83
2023-01-20T13:59:02.277Z,47.58
2023-01-20T14:01:28.979Z,49.70
2023-01-20T14:04:03.271Z,56.42
2023-01-20T14:06:33.214Z,54.13
2023-01-20T14:09:01.467Z,50.50
2023-01-20T14:11:30.592Z,49.47
2023-01-20T14:14:03.094Z,44.72
2023-01-20T14:16:36.368Z,44.70
2023-01-20T14:19:29.698Z,42.30
2023-01-20T14:21:58.203Z,39.78
2023-01-20T14:24:36.662Z,39.17
2023-01-20T14:27:24.054Z,35.67
2023-01-20T14:29:53.273Z,30.77
2023-01-20T14:32:25.201Z,30.33
2023-01-20T14:34:55.739Z,28.50
2023-01-20T14:37:28.006Z,28.80
2023-01-20T14:39:58.640Z,27.60
2023-01-20T14:42:27.315Z,25.92
2023-01-20T14:44:56.392Z,26.35
2023-01-20T14:47:26.764Z,26.52
2023-01-20T14:49:54.778Z,24.20
2023-01-20T14:52:27.078Z,21.33
2023-01-20T14:54:56.448Z,21.90
2023-01-20T14:57:34.623Z,20.80
2023-01-20T15:00:10.854Z,18.80
2023-01-20T15:02:40.199Z,15.70
2023-01-20T15:05:36.902Z,19.98
2023-01-20T15:08:18.859Z,13.68
2023-01-20T15:10:46.253Z,13.10
2023-01-20T15:13:27.899Z,14.02
2023-01-20T15:16:13.797Z,13.73
2023-01-20T15:18:40.999Z,15.50
2023-01-20T15:21:25.553Z,14.05
2023-01-20T15:26:29.558Z,33.78
2023-01-20T15:28:58.099Z,28.08
2023-01-20T15:31:25.011Z,24.77
2023-01-20T15:33:51.770Z,27.73
2023-01-20T15:36:29.192Z,28.90
2023-01-20T15:38:56.514Z,20.85
2023-01-20T15:41:24.328Z,23.10
2023-01-20T15:43:52.706Z,19.92
2023-01-20T15:46:19.866Z,19.38
2023-01-20T15:48:46.875Z,29.30
2023-01-20T15:51:16.439Z,15.40
2023-01-20T15:53:43.490Z,18.05
2023-01-20T15:56:21.528Z,20.85
2023-01-20T15:58:48.816Z,14.77
2023-01-20T16:01:18.036Z,14.77
2023-01-20T16:03:45.350Z,20.25
2023-01-20T16:06:14.926Z,27.10
2023-01-20T16:08:42.600Z,18.13
2023-01-20T16:11:11.808Z,27.48
2023-01-20T16:13:40.256Z,16.17
2023-01-20T16:16:16.010Z,20.38
2023-01-20T16:18:44.338Z,15.30
2023-01-20T16:21:12.860Z,26.92
2023-01-20T16:23:39.642Z,36.28
2023-01-20T16:26:23.701Z,42.67
2023-01-20T16:28:56.478Z,45.83
2023-01-20T16:31:24.287Z,66.00
2023-01-20T16:33:52.898Z,57.83
2023-01-20T16:36:21.147Z,45.53
2023-01-20T16:38:48.766Z,54.03
2023-01-20T16:41:31.036Z,49.33
2023-01-20T16:43:58.552Z,57.03
2023-01-20T16:46:28.095Z,59.22
2023-01-20T16:48:59.649Z,45.15
2023-01-20T16:51:26.876Z,53.60
2023-01-20T16:53:54.192Z,42.05
2023-01-20T16:56:28.078Z,40.58
2023-01-20T16:58:59.571Z,48.30
2023-01-20T17:01:27.344Z,49.05
2023-01-20T17:03:56.516Z,49.05
2023-01-20T17:06:26.458Z,40.78
2023-01-20T17:08:55.311Z,41.42
2023-01-20T17:11:33.850Z,44.60
2023-01-20T17:14:06.528Z,40.10
2023-01-20T17:16:33.647Z,39.78
2023-01-20T17:19:06.133Z,48.85
2023-01-20T17:21:37.176Z,39.28
2023-01-20T17:24:05.206Z,42.05
2023-01-20T17:26:32.728Z,42.38
2023-01-20T17:29:04.844Z,43.65
2023-01-20T17:31:35.704Z,39.40
2023-01-20T17:34:04.268Z,23.48
2023-01-20T17:36:34.472Z,17.85
2023-01-20T17:39:03.112Z,15.60
2023-01-20T17:41:29.945Z,25.20
2023-01-20T17:43:56.704Z,22.38
2023-01-20T17:46:27.910Z,14.35
2023-01-20T17:48:57.218Z,18.10
2023-01-20T17:51:25.959Z,50.90
2023-01-20T17:53:53.515Z,24.40
2023-01-20T17:56:22.131Z,17.33
2023-01-20T17:58:49.903Z,13.13
2023-01-20T18:01:25.705Z,13.02
2023-01-20T18:03:54.827Z,14.30
2023-01-20T18:06:23.313Z,15.95
2023-01-20T18:09:00.808Z,12.88
2023-01-20T18:11:30.460Z,17.42
2023-01-20T18:13:58.800Z,14.60
2023-01-20T18:16:29.582Z,11.98
2023-01-20T18:18:58.991Z,14.05
2023-01-20T18:21:34.680Z,11.73
2023-01-20T18:24:03.007Z,10.38
2023-01-20T18:26:32.966Z,10.55
2023-01-20T18:29:02.743Z,11.85
2023-01-20T18:31:37.612Z,10.76
2023-01-20T18:34:06.982Z,9.13
2023-01-20T18:36:39.244Z,9.20
2023-01-20T18:39:05.925Z,9.65
2023-01-20T18:41:36.475Z,10.82
2023-01-20T18:44:04.365Z,8.98
2023-01-20T18:46:31.391Z,14.30
2023-01-20T18:48:58.261Z,15.70
2023-01-20T18:51:27.753Z,10.00
2023-01-20T18:54:00.554Z,8.32
2023-01-20T18:56:28.869Z,7.32
2023-01-20T18:58:55.639Z,8.77
2023-01-20T19:01:28.990Z,5.22
2023-01-20T19:03:56.947Z,4.93
2023-01-20T19:06:28.638Z,7.18
2023-01-20T19:08:59.613Z,7.13
2023-01-20T19:11:31.462Z,6.15
2023-01-20T19:13:58.943Z,8.57
2023-01-20T19:16:28.267Z,6.35
2023-01-20T19:18:57.365Z,5.32
2023-01-20T19:21:25.798Z,3.15
2023-01-20T19:23:55.480Z,3.47
2023-01-20T19:26:24.887Z,3.28
2023-01-20T19:29:03.873Z,3.33
2023-01-20T19:31:33.414Z,3.88
2023-01-20T19:34:00.528Z,3.15
2023-01-20T19:36:27.356Z,3.03
2023-01-20T19:38:54.150Z,3.28
2023-01-20T19:41:25.754Z,3.55
2023-01-20T19:43:57.388Z,2.55
2023-01-20T19:46:27.004Z,3.40
2023-01-20T19:48:57.481Z,6.10
2023-01-20T19:51:25.896Z,3.78
2023-01-20T19:53:58.477Z,2.47
2023-01-20T19:56:27.397Z,2.72
2023-01-20T19:58:54.912Z,2.85
2023-01-20T20:01:25.409Z,2.53
2023-01-20T20:03:54.448Z,3.10
2023-01-20T20:06:33.228Z,3.50
2023-01-20T20:09:06.512Z,2.75
2023-01-20T20:11:34.485Z,2.73
2023-01-20T20:14:03.199Z,3.15
2023-01-20T20:16:32.424Z,5.15
2023-01-20T20:18:59.743Z,6.72
2023-01-20T20:21:27.312Z,6.50
2023-01-20T20:23:56.853Z,7.32
2023-01-20T20:26:26.873Z,3.17
2023-01-20T20:28:53.852Z,3.90
2023-01-20T20:31:22.310Z,3.72
2023-01-20T20:33:49.120Z,2.10
2023-01-20T20:36:15.844Z,2.80
2023-01-20T20:38:42.512Z,2.30
2023-01-20T20:41:09.809Z,2.22
2023-01-20T20:43:38.150Z,2.65
2023-01-20T20:46:08.463Z,2.95
2023-01-20T20:48:38.922Z,2.95
2023-01-20T20:51:07.511Z,3.20
2023-01-20T20:53:34.316Z,2.42
2023-01-20T20:56:04.115Z,2.92
2023-01-20T20:58:31.908Z,2.60
2023-01-20T21:01:02.729Z,2.70
2023-01-20T21:03:30.716Z,2.10
2023-01-20T21:05:58.002Z,1.88
2023-01-20T21:08:26.252Z,2.20
2023-01-20T21:10:53.273Z,2.22
2023-01-20T21:13:20.466Z,2.40
2023-01-20T21:16:01.608Z,2.08
2023-01-20T21:18:28.604Z,2.08
2023-01-20T21:21:00.183Z,2.13
2023-01-20T21:23:28.569Z,2.10
2023-01-20T21:26:01.867Z,2.25
2023-01-20T21:28:30.305Z,2.23
2023-01-20T21:30:57.078Z,2.25
2023-01-20T21:33:24.137Z,2.17
2023-01-20T21:35:51.187Z,2.03
2023-01-20T21:38:17.912Z,2.17
2023-01-20T21:41:00.075Z,2.65
2023-01-20T21:43:49.998Z,2.50
2023-01-20T21:46:17.465Z,2.55
2023-01-20T21:49:03.413Z,2.50
2023-01-20T21:51:49.370Z,2.30
2023-01-20T21:54:16.746Z,2.00
2023-01-20T21:56:43.687Z,2.60
2023-01-20T21:59:10.460Z,2.20
2023-01-20T22:01:37.955Z,2.30
2023-01-20T22:04:04.772Z,2.53
2023-01-20T22:06:31.528Z,2.08
2023-01-20T22:08:58.742Z,2.40
2023-01-20T22:11:28.620Z,2.20
2023-01-20T22:13:58.334Z,2.35
2023-01-20T22:16:25.928Z,2.38
2023-01-20T22:18:53.915Z,3.00
2023-01-20T22:21:22.388Z,3.20
2023-01-20T22:23:49.045Z,2.80
2023-01-20T22:26:15.789Z,2.40
2023-01-20T22:28:42.954Z,2.60
2023-01-20T22:31:12.304Z,2.45
2023-01-20T22:33:39.329Z,2.88
2023-01-20T22:36:06.637Z,2.67
2023-01-20T22:38:34.558Z,2.70
2023-01-20T22:41:06.528Z,2.40
2023-01-20T22:43:35.097Z,2.63
2023-01-20T22:46:04.874Z,2.83
2023-01-20T22:48:34.066Z,2.80
2023-01-20T22:51:24.937Z,7.88
2023-01-20T22:53:59.415Z,5.30
2023-01-20T22:56:29.118Z,2.95
2023-01-20T22:59:00.060Z,2.83
2023-01-20T23:01:32.649Z,2.72
2023-01-20T23:04:02.345Z,2.33
2023-01-20T23:06:32.886Z,2.50
2023-01-20T23:09:01.581Z,3.25
2023-01-20T23:11:36.486Z,2.80
2023-01-20T23:14:03.776Z,3.35
2023-01-20T23:16:30.593Z,3.97
2023-01-20T23:18:57.564Z,2.80
2023-01-20T23:21:24.664Z,2.75
2023-01-20T23:23:54.900Z,2.78
2023-01-20T23:26:30.128Z,2.50
2023-01-20T23:28:57.219Z,2.55
2023-01-20T23:31:25.750Z,2.53
2023-01-20T23:33:53.666Z,2.42
2023-01-20T23:36:23.200Z,2.58
2023-01-20T23:38:50.257Z,2.25
2023-01-20T23:41:17.304Z,2.45
2023-01-20T23:43:43.987Z,2.42
2023-01-20T23:46:10.927Z,2.45
2023-01-20T23:48:38.273Z,2.10
2023-01-20T23:51:06.476Z,2.83
2023-01-20T23:53:36.248Z,2.40
2023-01-20T23:56:08.418Z,2.17
2023-01-20T23:58:35.448Z,2.50
